Time;durP1;ratioP1;P1;durP2;ratioP2;P2;SDS_P1;SDS_P2;PMS_P1;PMS_P2;Temp;Humidity;BMP_temperature;BMP_pressure;BME280_temperature;BME280_humidity;BME280_pressure;Samples;Min_cycle;Max_cycle;Signal;HPM_P1;HPM_P2
2022/01/11 00:00:29;;;;;;;128.18;18.42;;;;;;;;;;5020807;28;20311;-69
2022/01/11 00:02:56;;;;;;;139.88;17.48;;;;;;;;;;5019284;28;20053;-69
2022/01/11 00:05:31;;;;;;;77.72;15.95;;;;;;;;;;5022702;28;20053;-68
2022/01/11 00:07:59;;;;;;;106.90;17.13;;;;;;;;;;5021984;28;20054;-68
2022/01/11 00:10:29;;;;;;;83.35;17.00;;;;;;;;;;5018028;28;20055;-68
2022/01/11 00:12:56;;;;;;;94.97;16.05;;;;;;;;;;5022000;28;20417;-68
2022/01/11 00:15:23;;;;;;;83.40;17.08;;;;;;;;;;5015868;28;20057;-64
2022/01/11 00:17:50;;;;;;;100.03;16.50;;;;;;;;;;5027252;28;20045;-64
2022/01/11 00:20:19;;;;;;;116.70;17.83;;;;;;;;;;5021979;28;20058;-64
2022/01/11 00:25:23;;;;;;;74.28;14.18;;;;;;;;;;5027451;28;20467;-62
2022/01/11 00:27:49;;;;;;;118.60;15.38;;;;;;;;;;5012427;28;20255;-63
2022/01/11 00:30:15;;;;;;;84.20;14.30;;;;;;;;;;5027270;28;20048;-63
2022/01/11 00:32:47;;;;;;;67.50;13.63;;;;;;;;;;5022758;28;20053;-63
2022/01/11 00:35:16;;;;;;;53.50;14.65;;;;;;;;;;5029776;28;20434;-63
2022/01/11 00:37:45;;;;;;;123.78;18.23;;;;;;;;;;5016185;28;20399;-63
2022/01/11 00:40:12;;;;;;;48.72;13.48;;;;;;;;;;5024034;28;21485;-63
2022/01/11 00:42:38;;;;;;;38.67;14.35;;;;;;;;;;5019922;28;20060;-63
2022/01/11 00:45:06;;;;;;;36.58;14.32;;;;;;;;;;5021612;28;20047;-63
2022/01/11 00:47:32;;;;;;;119.20;17.67;;;;;;;;;;5028730;28;20045;-64
2022/01/11 00:49:58;;;;;;;47.70;15.25;;;;;;;;;;5019965;28;20046;-63
2022/01/11 00:52:25;;;;;;;69.35;15.25;;;;;;;;;;5025543;28;20049;-62
2022/01/11 00:54:51;;;;;;;59.53;15.65;;;;;;;;;;5012320;28;20052;-62
2022/01/11 00:57:17;;;;;;;63.08;15.40;;;;;;;;;;5035967;28;20498;-63
2022/01/11 00:59:44;;;;;;;69.30;15.77;;;;;;;;;;5030733;28;20045;-63
2022/01/11 01:02:10;;;;;;;57.65;14.57;;;;;;;;;;5018644;28;20049;-63
2022/01/11 01:04:36;;;;;;;89.85;16.48;;;;;;;;;;5029041;28;20053;-62
2022/01/11 01:07:03;;;;;;;110.40;16.25;;;;;;;;;;5015015;28;20045;-62
2022/01/11 01:09:37;;;;;;;111.35;17.77;;;;;;;;;;5030399;28;20045;-63
2022/01/11 01:12:04;;;;;;;63.60;14.63;;;;;;;;;;5019662;28;20049;-63
2022/01/11 01:14:30;;;;;;;72.72;16.17;;;;;;;;;;5029488;28;20049;-63
2022/01/11 01:16:56;;;;;;;149.00;17.08;;;;;;;;;;5026744;28;20049;-64
2022/01/11 01:19:26;;;;;;;77.70;15.75;;;;;;;;;;5018744;28;20046;-63
2022/01/11 01:21:54;;;;;;;65.72;16.48;;;;;;;;;;5023095;28;20048;-63
2022/01/11 01:24:21;;;;;;;69.68;16.08;;;;;;;;;;5021801;28;20067;-63
2022/01/11 01:26:47;;;;;;;104.65;17.30;;;;;;;;;;5026677;28;20049;-63
2022/01/11 01:29:14;;;;;;;121.57;17.45;;;;;;;;;;5021205;28;20064;-63
2022/01/11 01:31:41;;;;;;;74.05;16.80;;;;;;;;;;5029218;28;20057;-63
2022/01/11 01:34:07;;;;;;;122.35;17.48;;;;;;;;;;5024081;28;20046;-62
2022/01/11 01:36:34;;;;;;;50.20;17.02;;;;;;;;;;5019811;28;20053;-64
2022/01/11 01:39:00;;;;;;;59.53;16.15;;;;;;;;;;5031760;28;20049;-63
2022/01/11 01:41:26;;;;;;;55.15;16.33;;;;;;;;;;5018855;28;20422;-64
2022/01/11 01:43:55;;;;;;;59.33;16.02;;;;;;;;;;5030868;28;20053;-64
2022/01/11 01:46:22;;;;;;;36.72;15.70;;;;;;;;;;5019109;28;20089;-64
2022/01/11 01:48:49;;;;;;;82.15;16.92;;;;;;;;;;5027337;28;20475;-64
2022/01/11 01:51:16;;;;;;;51.65;16.27;;;;;;;;;;5024296;28;20045;-64
2022/01/11 01:53:44;;;;;;;44.38;16.23;;;;;;;;;;5020405;28;20045;-64
2022/01/11 01:56:10;;;;;;;36.00;14.73;;;;;;;;;;5028646;28;20663;-64
2022/01/11 01:58:40;;;;;;;63.10;16.60;;;;;;;;;;5021745;28;20057;-64
2022/01/11 02:01:06;;;;;;;37.97;15.77;;;;;;;;;;5022782;28;20064;-64
2022/01/11 02:03:38;;;;;;;35.22;14.63;;;;;;;;;;5018098;28;20164;-64
2022/01/11 02:06:06;;;;;;;63.10;14.07;;;;;;;;;;5030643;28;20045;-65
2022/01/11 02:08:32;;;;;;;39.33;15.90;;;;;;;;;;5027847;28;20053;-64
2022/01/11 02:10:59;;;;;;;57.97;17.55;;;;;;;;;;5032521;28;20060;-64
2022/01/11 02:13:25;;;;;;;55.90;16.40;;;;;;;;;;5034543;28;20049;-64
2022/01/11 02:15:52;;;;;;;51.35;15.15;;;;;;;;;;5013232;28;20060;-64
2022/01/11 02:18:21;;;;;;;51.28;14.98;;;;;;;;;;5024985;28;20410;-64
2022/01/11 02:20:49;;;;;;;43.35;15.93;;;;;;;;;;5026171;28;20056;-64
2022/01/11 02:23:17;;;;;;;46.08;14.45;;;;;;;;;;5027351;28;20140;-64
2022/01/11 02:25:44;;;;;;;49.65;17.25;;;;;;;;;;5006950;28;20098;-63
2022/01/11 02:28:12;;;;;;;40.20;16.08;;;;;;;;;;5035784;28;20056;-65
2022/01/11 02:30:38;;;;;;;48.50;16.27;;;;;;;;;;5024310;28;20422;-64
2022/01/11 02:33:10;;;;;;;77.93;15.25;;;;;;;;;;5023842;28;20302;-63
2022/01/11 02:35:36;;;;;;;61.45;16.33;;;;;;;;;;5028755;28;20057;-62
2022/01/11 02:38:03;;;;;;;37.35;14.90;;;;;;;;;;5019292;28;20046;-63
2022/01/11 02:40:29;;;;;;;45.75;15.57;;;;;;;;;;5033053;28;20042;-63
2022/01/11 02:42:55;;;;;;;34.70;15.10;;;;;;;;;;5022251;28;20133;-63
2022/01/11 02:45:22;;;;;;;31.65;13.85;;;;;;;;;;5032569;28;20053;-63
2022/01/11 02:47:48;;;;;;;34.47;15.20;;;;;;;;;;5026650;28;20037;-64
2022/01/11 02:50:16;;;;;;;38.75;15.38;;;;;;;;;;5021584;28;20054;-63
2022/01/11 02:52:42;;;;;;;57.67;15.63;;;;;;;;;;5034263;28;20049;-63
2022/01/11 02:55:10;;;;;;;51.50;16.15;;;;;;;;;;5016826;28;20498;-63
2022/01/11 02:57:37;;;;;;;72.87;16.93;;;;;;;;;;5024470;28;20046;-63
2022/01/11 03:00:05;;;;;;;52.50;17.40;;;;;;;;;;5027923;28;20366;-63
2022/01/11 03:02:31;;;;;;;44.90;16.80;;;;;;;;;;5027824;28;20473;-63
2022/01/11 03:04:57;;;;;;;38.22;16.48;;;;;;;;;;5032967;28;20584;-63
2022/01/11 03:07:24;;;;;;;45.78;17.27;;;;;;;;;;5020410;28;20057;-62
2022/01/11 03:12:23;;;;;;;37.13;17.48;;;;;;;;;;5023743;28;20050;-63
2022/01/11 03:14:49;;;;;;;35.08;15.52;;;;;;;;;;5031444;28;20045;-63
2022/01/11 03:17:15;;;;;;;34.53;16.15;;;;;;;;;;5023043;28;20042;-63
2022/01/11 03:19:42;;;;;;;36.13;16.85;;;;;;;;;;5033443;28;20461;-62
2022/01/11 03:22:08;;;;;;;41.10;16.02;;;;;;;;;;5024849;28;20415;-63
2022/01/11 03:24:34;;;;;;;33.72;15.38;;;;;;;;;;5025609;28;20057;-63
2022/01/11 03:27:01;;;;;;;35.95;15.30;;;;;;;;;;5031805;28;20037;-63
2022/01/11 03:29:27;;;;;;;35.63;15.05;;;;;;;;;;5005544;28;20056;-63
2022/01/11 03:31:53;;;;;;;31.67;15.60;;;;;;;;;;5024347;28;20046;-63
2022/01/11 03:34:20;;;;;;;31.73;15.38;;;;;;;;;;5027816;28;20044;-63
2022/01/11 03:36:46;;;;;;;37.67;16.30;;;;;;;;;;5023445;28;20038;-62
2022/01/11 03:39:12;;;;;;;32.33;14.60;;;;;;;;;;5034191;28;20050;-62
2022/01/11 03:41:38;;;;;;;32.22;16.08;;;;;;;;;;5023917;28;20746;-62
2022/01/11 03:44:06;;;;;;;29.90;14.38;;;;;;;;;;5035069;28;20056;-63
2022/01/11 03:46:32;;;;;;;34.42;16.63;;;;;;;;;;5020751;28;20065;-63
2022/01/11 03:48:59;;;;;;;31.27;15.75;;;;;;;;;;5027239;28;20558;-63
2022/01/11 03:51:25;;;;;;;28.88;15.30;;;;;;;;;;5018114;28;20057;-63
2022/01/11 03:54:09;;;;;;;32.22;16.08;;;;;;;;;;5032510;28;20044;-63
2022/01/11 03:56:35;;;;;;;32.40;16.30;;;;;;;;;;5027947;28;20041;-63
2022/01/11 03:59:06;;;;;;;28.83;14.93;;;;;;;;;;5025488;28;20050;-62
2022/01/11 04:01:33;;;;;;;35.22;17.00;;;;;;;;;;5028163;28;20504;-62
2022/01/11 04:03:59;;;;;;;32.75;15.68;;;;;;;;;;5020564;28;20487;-62
2022/01/11 04:06:27;;;;;;;40.03;17.42;;;;;;;;;;5028579;28;20045;-62
2022/01/11 04:08:53;;;;;;;31.90;16.10;;;;;;;;;;5024912;28;20042;-63
2022/01/11 04:11:20;;;;;;;32.55;16.65;;;;;;;;;;5028936;28;20045;-63
2022/01/11 04:13:47;;;;;;;32.08;15.77;;;;;;;;;;5032182;28;20049;-62
2022/01/11 04:16:13;;;;;;;33.28;16.95;;;;;;;;;;5017848;28;20064;-62
2022/01/11 04:18:40;;;;;;;33.80;15.20;;;;;;;;;;5033327;28;20049;-62
2022/01/11 04:21:07;;;;;;;35.40;16.20;;;;;;;;;;5020668;28;20053;-63
2022/01/11 04:23:33;;;;;;;35.30;16.67;;;;;;;;;;5030519;28;20053;-64
2022/01/11 04:26:00;;;;;;;30.20;15.85;;;;;;;;;;5021779;28;20049;-64
2022/01/11 04:28:27;;;;;;;33.50;15.73;;;;;;;;;;5024186;28;20414;-63
2022/01/11 04:30:58;;;;;;;29.00;15.75;;;;;;;;;;5024491;28;20049;-63
2022/01/11 04:33:24;;;;;;;32.83;17.73;;;;;;;;;;5029686;28;20099;-64
2022/01/11 04:35:51;;;;;;;32.03;16.58;;;;;;;;;;5027513;28;20049;-64
2022/01/11 04:38:19;;;;;;;38.45;18.92;;;;;;;;;;5025311;28;20045;-63
2022/01/11 04:40:45;;;;;;;37.67;17.88;;;;;;;;;;5007409;28;20080;-63
2022/01/11 04:43:11;;;;;;;39.42;17.75;;;;;;;;;;5018357;28;20517;-63
2022/01/11 04:45:40;;;;;;;33.15;16.45;;;;;;;;;;5015325;28;20085;-64
2022/01/11 04:48:07;;;;;;;33.40;17.13;;;;;;;;;;5022422;28;20053;-64
2022/01/11 04:50:33;;;;;;;34.95;17.55;;;;;;;;;;5027365;28;20422;-64
2022/01/11 04:53:00;;;;;;;33.70;16.38;;;;;;;;;;5033290;28;20049;-64
2022/01/11 04:55:26;;;;;;;35.10;17.13;;;;;;;;;;5017616;28;20052;-64
2022/01/11 04:57:58;;;;;;;35.33;17.73;;;;;;;;;;5026933;28;20056;-64
2022/01/11 05:00:25;;;;;;;33.97;15.75;;;;;;;;;;5035797;28;20052;-64
2022/01/11 05:02:51;;;;;;;34.58;16.63;;;;;;;;;;5031708;28;20053;-64
2022/01/11 05:05:18;;;;;;;32.85;16.05;;;;;;;;;;5030295;28;20049;-64
2022/01/11 05:07:45;;;;;;;35.35;17.17;;;;;;;;;;5030386;28;20045;-63
2022/01/11 05:10:12;;;;;;;40.97;18.50;;;;;;;;;;5022546;28;20068;-64
2022/01/11 05:12:38;;;;;;;36.33;17.60;;;;;;;;;;5019401;28;20054;-64
2022/01/11 05:15:09;;;;;;;33.95;15.77;;;;;;;;;;5029714;28;20060;-64
2022/01/11 05:17:36;;;;;;;37.17;17.83;;;;;;;;;;5024113;28;20053;-64
2022/01/11 05:20:03;;;;;;;32.97;16.48;;;;;;;;;;5034114;28;20128;-64
2022/01/11 05:22:29;;;;;;;34.78;15.02;;;;;;;;;;5022230;28;20399;-64
2022/01/11 05:24:55;;;;;;;34.20;16.02;;;;;;;;;;5019643;28;20473;-64
2022/01/11 05:27:22;;;;;;;32.47;14.75;;;;;;;;;;5033282;28;20072;-64
2022/01/11 05:29:48;;;;;;;33.22;16.65;;;;;;;;;;5020001;28;20053;-64
2022/01/11 05:32:14;;;;;;;34.88;16.02;;;;;;;;;;5030583;28;20045;-63
2022/01/11 05:34:41;;;;;;;33.80;15.48;;;;;;;;;;5012224;28;20053;-64
2022/01/11 05:37:07;;;;;;;30.60;15.40;;;;;;;;;;5023123;28;20468;-63
2022/01/11 05:39:33;;;;;;;30.48;14.93;;;;;;;;;;5028376;28;20057;-63
2022/01/11 05:42:00;;;;;;;32.45;16.25;;;;;;;;;;5034452;28;20059;-64
2022/01/11 05:44:26;;;;;;;30.58;15.30;;;;;;;;;;5031178;28;20501;-64
2022/01/11 05:46:53;;;;;;;27.50;14.10;;;;;;;;;;5024709;28;20060;-63
2022/01/11 05:49:19;;;;;;;27.48;14.55;;;;;;;;;;5035364;28;20061;-64
2022/01/11 05:51:45;;;;;;;26.85;14.05;;;;;;;;;;5022547;28;20421;-64
2022/01/11 05:54:12;;;;;;;32.88;14.45;;;;;;;;;;5026599;28;20056;-64
2022/01/11 05:56:38;;;;;;;28.92;13.63;;;;;;;;;;5025447;28;20750;-64
2022/01/11 05:59:04;;;;;;;28.88;13.95;;;;;;;;;;5034516;28;20410;-63
2022/01/11 06:01:32;;;;;;;28.20;14.55;;;;;;;;;;5027988;28;20587;-63
2022/01/11 06:03:59;;;;;;;29.20;15.00;;;;;;;;;;5026616;28;20489;-62
2022/01/11 06:06:25;;;;;;;30.27;14.93;;;;;;;;;;5013628;28;20063;-62
2022/01/11 06:08:56;;;;;;;31.27;14.60;;;;;;;;;;5022787;28;20065;-63
2022/01/11 06:11:22;;;;;;;34.65;15.07;;;;;;;;;;5031779;28;20056;-63
2022/01/11 06:13:51;;;;;;;32.00;15.65;;;;;;;;;;5024292;28;20041;-62
2022/01/11 06:16:17;;;;;;;33.67;15.32;;;;;;;;;;5030502;28;20045;-62
2022/01/11 06:18:45;;;;;;;31.58;15.25;;;;;;;;;;5028804;28;20057;-62
2022/01/11 06:21:11;;;;;;;36.90;16.20;;;;;;;;;;5019576;28;20065;-62
2022/01/11 06:23:38;;;;;;;30.02;14.48;;;;;;;;;;5030942;28;20046;-62
2022/01/11 06:26:04;;;;;;;29.55;15.82;;;;;;;;;;5024218;28;20430;-62
2022/01/11 06:28:30;;;;;;;33.05;16.25;;;;;;;;;;5031014;28;20045;-62
2022/01/11 06:30:57;;;;;;;34.83;16.35;;;;;;;;;;5021129;28;20045;-62
2022/01/11 06:33:23;;;;;;;34.95;17.92;;;;;;;;;;5028033;28;20430;-62
2022/01/11 06:35:49;;;;;;;35.85;18.10;;;;;;;;;;5022791;28;20068;-62
2022/01/11 06:38:16;;;;;;;36.85;17.95;;;;;;;;;;5026778;28;20050;-62
2022/01/11 06:40:43;;;;;;;34.15;17.83;;;;;;;;;;5028597;28;20045;-62
2022/01/11 06:43:09;;;;;;;39.88;19.55;;;;;;;;;;5024190;28;20421;-62
2022/01/11 06:45:36;;;;;;;40.90;19.30;;;;;;;;;;5031886;28;20061;-62
2022/01/11 06:48:04;;;;;;;40.13;19.63;;;;;;;;;;5021865;28;20045;-62
2022/01/11 06:50:30;;;;;;;41.13;18.23;;;;;;;;;;5024515;28;20387;-62
2022/01/11 06:52:57;;;;;;;42.83;20.60;;;;;;;;;;5035017;28;20053;-62
2022/01/11 06:55:23;;;;;;;44.85;19.75;;;;;;;;;;5019369;28;20050;-62
2022/01/11 06:57:49;;;;;;;44.08;20.48;;;;;;;;;;5031508;28;20060;-62
2022/01/11 07:00:16;;;;;;;47.10;21.45;;;;;;;;;;5019991;28;20521;-62
2022/01/11 07:02:46;;;;;;;45.97;20.77;;;;;;;;;;5005854;28;20071;-62
2022/01/11 07:05:13;;;;;;;45.22;21.50;;;;;;;;;;5054824;28;20056;-62
2022/01/11 07:07:40;;;;;;;45.35;19.45;;;;;;;;;;5031060;28;20048;-61
2022/01/11 07:10:06;;;;;;;39.45;19.73;;;;;;;;;;5033951;28;20041;-62
2022/01/11 07:12:32;;;;;;;39.15;19.50;;;;;;;;;;5030023;28;20045;-62
2022/01/11 07:14:59;;;;;;;38.50;18.45;;;;;;;;;;5019609;28;20088;-62
2022/01/11 07:17:25;;;;;;;44.13;18.73;;;;;;;;;;5005461;28;20049;-62
2022/01/11 07:19:51;;;;;;;44.83;20.38;;;;;;;;;;5028745;28;20045;-62
2022/01/11 07:22:18;;;;;;;39.72;19.45;;;;;;;;;;5026979;28;20041;-62
2022/01/11 07:24:44;;;;;;;40.53;19.65;;;;;;;;;;5028801;28;20057;-62
2022/01/11 07:27:10;;;;;;;39.30;18.60;;;;;;;;;;5033850;28;20055;-62
2022/01/11 07:29:37;;;;;;;39.05;18.98;;;;;;;;;;5016285;28;20057;-62
2022/01/11 07:32:03;;;;;;;42.20;18.42;;;;;;;;;;5024509;28;20192;-62
2022/01/11 07:34:29;;;;;;;38.65;19.08;;;;;;;;;;5032758;28;20049;-64
2022/01/11 07:36:56;;;;;;;36.55;18.25;;;;;;;;;;5033394;28;20042;-63
2022/01/11 07:39:22;;;;;;;44.53;20.73;;;;;;;;;;5024167;28;20053;-62
2022/01/11 07:41:50;;;;;;;39.15;18.23;;;;;;;;;;5029507;28;20478;-63
2022/01/11 07:44:20;;;;;;;35.65;17.95;;;;;;;;;;5023204;28;20056;-63
2022/01/11 07:46:47;;;;;;;36.97;18.42;;;;;;;;;;5020518;28;20045;-63
2022/01/11 07:49:13;;;;;;;34.30;17.35;;;;;;;;;;5025459;28;20056;-63
2022/01/11 07:51:39;;;;;;;36.33;16.75;;;;;;;;;;5020153;28;20061;-62
2022/01/11 07:54:06;;;;;;;32.72;16.38;;;;;;;;;;5031286;28;20042;-63
2022/01/11 07:56:32;;;;;;;31.60;14.90;;;;;;;;;;5020694;28;21075;-63
2022/01/11 07:58:59;;;;;;;30.83;15.05;;;;;;;;;;5023985;28;20071;-62
2022/01/11 08:01:25;;;;;;;33.13;16.70;;;;;;;;;;5027378;28;20426;-63
2022/01/11 08:03:52;;;;;;;31.35;16.38;;;;;;;;;;5028866;28;20413;-63
2022/01/11 08:06:18;;;;;;;31.88;15.95;;;;;;;;;;5028948;28;20045;-63
2022/01/11 08:08:44;;;;;;;28.45;14.70;;;;;;;;;;5025229;28;20499;-64
2022/01/11 08:11:11;;;;;;;31.80;15.57;;;;;;;;;;5023884;28;20052;-63
2022/01/11 08:13:37;;;;;;;26.67;14.35;;;;;;;;;;5019091;28;20499;-64
2022/01/11 08:16:04;;;;;;;28.80;14.77;;;;;;;;;;5035928;28;20058;-64
2022/01/11 08:18:30;;;;;;;23.75;13.98;;;;;;;;;;5031693;28;20049;-64
2022/01/11 08:20:57;;;;;;;28.42;14.07;;;;;;;;;;5021904;28;20046;-63
2022/01/11 08:23:23;;;;;;;27.67;14.15;;;;;;;;;;5032351;28;20585;-63
2022/01/11 08:25:49;;;;;;;26.95;13.82;;;;;;;;;;5015581;28;20060;-63
2022/01/11 08:28:16;;;;;;;29.75;15.05;;;;;;;;;;5026784;28;20041;-64
2022/01/11 08:30:42;;;;;;;25.25;14.95;;;;;;;;;;5020316;28;20430;-63
2022/01/11 08:33:09;;;;;;;24.95;13.65;;;;;;;;;;5029710;28;20041;-63
2022/01/11 08:35:36;;;;;;;22.45;12.48;;;;;;;;;;5028085;28;20056;-63
2022/01/11 08:38:04;;;;;;;25.85;14.68;;;;;;;;;;5023793;28;20115;-63
2022/01/11 08:40:30;;;;;;;27.23;13.32;;;;;;;;;;5033922;28;20050;-64
2022/01/11 08:42:56;;;;;;;30.23;15.70;;;;;;;;;;5020930;28;20045;-64
2022/01/11 08:45:23;;;;;;;25.42;13.85;;;;;;;;;;5028138;28;20049;-63
2022/01/11 08:47:49;;;;;;;23.88;13.18;;;;;;;;;;5024187;28;20449;-63
2022/01/11 08:50:15;;;;;;;27.92;14.23;;;;;;;;;;5020139;28;20053;-63
2022/01/11 08:52:42;;;;;;;25.00;13.20;;;;;;;;;;5038866;28;20064;-63
2022/01/11 08:55:11;;;;;;;27.13;14.40;;;;;;;;;;5013446;28;20049;-63
2022/01/11 08:57:37;;;;;;;25.23;13.63;;;;;;;;;;5029357;28;20072;-64
2022/01/11 09:00:08;;;;;;;30.35;14.82;;;;;;;;;;5028570;28;20072;-64
2022/01/11 09:02:35;;;;;;;27.90;15.50;;;;;;;;;;5032486;28;20045;-63
2022/01/11 09:05:02;;;;;;;23.00;12.80;;;;;;;;;;5029935;28;20448;-63
2022/01/11 09:07:28;;;;;;;24.75;14.13;;;;;;;;;;5015091;28;20702;-64
2022/01/11 09:09:54;;;;;;;28.75;12.93;;;;;;;;;;5028304;28;20049;-64
2022/01/11 09:12:21;;;;;;;27.42;13.90;;;;;;;;;;5024915;28;20067;-63
2022/01/11 09:14:48;;;;;;;31.10;15.02;;;;;;;;;;5024630;28;20057;-64
2022/01/11 09:17:14;;;;;;;28.40;14.27;;;;;;;;;;5018154;28;20056;-64
2022/01/11 09:19:41;;;;;;;25.33;13.45;;;;;;;;;;5024783;28;20518;-63
2022/01/11 09:22:07;;;;;;;28.15;13.60;;;;;;;;;;5021554;28;20060;-64
2022/01/11 09:24:34;;;;;;;27.35;13.18;;;;;;;;;;5028189;28;20119;-64
2022/01/11 09:27:04;;;;;;;27.40;14.88;;;;;;;;;;5031520;28;20053;-64
2022/01/11 09:29:32;;;;;;;28.15;14.77;;;;;;;;;;5013232;28;20413;-64
2022/01/11 09:31:59;;;;;;;24.25;13.50;;;;;;;;;;5023503;28;20051;-64
2022/01/11 09:34:25;;;;;;;31.80;15.40;;;;;;;;;;5022186;28;20426;-64
2022/01/11 09:36:52;;;;;;;31.60;15.27;;;;;;;;;;5033397;28;20054;-63
2022/01/11 09:39:19;;;;;;;28.80;14.35;;;;;;;;;;5019540;28;20481;-63
2022/01/11 09:41:45;;;;;;;30.75;15.18;;;;;;;;;;5029686;28;20044;-64
2022/01/11 09:44:11;;;;;;;31.70;14.80;;;;;;;;;;5024602;28;20061;-63
2022/01/11 09:46:38;;;;;;;30.20;13.50;;;;;;;;;;5016273;28;20045;-64
2022/01/11 09:49:05;;;;;;;31.25;14.15;;;;;;;;;;5031206;28;20049;-63
2022/01/11 09:51:32;;;;;;;27.50;14.02;;;;;;;;;;5022062;28;21607;-64
2022/01/11 09:53:58;;;;;;;27.77;13.50;;;;;;;;;;5026441;28;20068;-64
2022/01/11 09:56:25;;;;;;;27.55;14.02;;;;;;;;;;5020109;28;20695;-63
2022/01/11 09:58:51;;;;;;;27.52;13.80;;;;;;;;;;5020681;28;20064;-64
2022/01/11 10:01:17;;;;;;;28.90;14.50;;;;;;;;;;5026372;28;20050;-63
2022/01/11 10:03:55;;;;;;;32.38;14.18;;;;;;;;;;5033629;28;20107;-63
2022/01/11 10:06:22;;;;;;;30.42;14.52;;;;;;;;;;5031589;28;20057;-63
2022/01/11 10:08:49;;;;;;;31.27;14.77;;;;;;;;;;5023722;28;20053;-63
2022/01/11 10:11:34;;;;;;;28.23;13.90;;;;;;;;;;5029220;28;20491;-63
2022/01/11 10:14:15;;;;;;;29.33;14.00;;;;;;;;;;5019685;28;20468;-63
2022/01/11 10:16:42;;;;;;;29.83;15.02;;;;;;;;;;5029564;28;20042;-63
2022/01/11 10:19:19;;;;;;;32.33;15.18;;;;;;;;;;5024878;28;20049;-63
2022/01/11 10:21:47;;;;;;;28.60;13.77;;;;;;;;;;5021869;28;20041;-63
2022/01/11 10:24:35;;;;;;;32.22;14.75;;;;;;;;;;5023493;28;20585;-63
2022/01/11 10:27:03;;;;;;;31.08;15.18;;;;;;;;;;5025731;28;20048;-63
2022/01/11 10:29:32;;;;;;;32.00;15.15;;;;;;;;;;5030570;28;20418;-63
2022/01/11 10:32:01;;;;;;;30.23;14.40;;;;;;;;;;5028531;28;20048;-64
2022/01/11 10:34:29;;;;;;;31.75;14.82;;;;;;;;;;5028445;28;20053;-63
2022/01/11 10:36:56;;;;;;;30.00;13.75;;;;;;;;;;5026918;28;20410;-63
2022/01/11 10:39:32;;;;;;;31.75;14.38;;;;;;;;;;5032917;28;20050;-63
2022/01/11 10:41:59;;;;;;;31.33;15.75;;;;;;;;;;5027026;28;20582;-63
2022/01/11 10:44:45;;;;;;;32.47;15.35;;;;;;;;;;5029508;28;20057;-63
2022/01/11 10:47:16;;;;;;;30.77;13.68;;;;;;;;;;5025056;28;20252;-63
2022/01/11 10:49:42;;;;;;;34.13;15.30;;;;;;;;;;5022329;28;20041;-63
2022/01/11 10:52:16;;;;;;;37.15;15.68;;;;;;;;;;5033798;28;20060;-63
2022/01/11 10:54:42;;;;;;;31.80;14.25;;;;;;;;;;5021858;28;20510;-63
2022/01/11 10:57:18;;;;;;;31.90;14.10;;;;;;;;;;5032963;28;20045;-64
2022/01/11 11:00:02;;;;;;;34.90;15.73;;;;;;;;;;5018342;28;20120;-63
2022/01/11 11:02:29;;;;;;;33.53;15.60;;;;;;;;;;5029448;28;20501;-63
2022/01/11 11:04:57;;;;;;;26.95;13.32;;;;;;;;;;5028422;28;20072;-63
2022/01/11 11:07:37;;;;;;;31.75;12.95;;;;;;;;;;5032855;28;20059;-64
2022/01/11 11:10:04;;;;;;;33.17;14.55;;;;;;;;;;5028190;28;20513;-62
2022/01/11 11:12:30;;;;;;;31.00;14.77;;;;;;;;;;5028275;28;20466;-64
2022/01/11 11:14:58;;;;;;;30.10;14.20;;;;;;;;;;5025253;28;20049;-64
2022/01/11 11:17:25;;;;;;;33.80;15.27;;;;;;;;;;5025040;28;20119;-64
2022/01/11 11:19:55;;;;;;;32.22;13.77;;;;;;;;;;5029428;28;20076;-64
2022/01/11 11:22:22;;;;;;;30.48;12.50;;;;;;;;;;5025800;28;20053;-64
2022/01/11 11:24:48;;;;;;;32.88;15.13;;;;;;;;;;5028302;28;20057;-64
2022/01/11 11:27:15;;;;;;;31.83;14.18;;;;;;;;;;5025520;28;20053;-64
2022/01/11 11:29:42;;;;;;;28.50;13.40;;;;;;;;;;5040174;28;20080;-63
2022/01/11 11:32:10;;;;;;;30.23;13.40;;;;;;;;;;5034372;28;20043;-64
2022/01/11 11:34:37;;;;;;;32.53;13.90;;;;;;;;;;5026810;28;20617;-64
2022/01/11 11:37:05;;;;;;;31.90;13.27;;;;;;;;;;5033138;28;20170;-63
2022/01/11 11:39:32;;;;;;;32.78;14.95;;;;;;;;;;5026774;28;20053;-64
2022/01/11 11:41:59;;;;;;;31.63;15.18;;;;;;;;;;5027574;28;20045;-64
2022/01/11 11:44:27;;;;;;;;;;;;;;;;;;5023257;28;20083;-63
2022/01/11 11:46:53;;;;;;;28.35;13.98;;;;;;;;;;5030528;28;19948;-64
2022/01/11 11:49:38;;;;;;;27.17;12.98;;;;;;;;;;5029354;28;20060;-64
2022/01/11 11:52:19;;;;;;;26.33;12.77;;;;;;;;;;5021888;28;20056;-63
2022/01/11 11:54:47;;;;;;;30.95;13.82;;;;;;;;;;5023374;28;20050;-64
2022/01/11 11:57:14;;;;;;;28.73;12.80;;;;;;;;;;5023987;28;20045;-64
2022/01/11 11:59:41;;;;;;;26.23;11.52;;;;;;;;;;5029189;28;20414;-64
2022/01/11 12:02:09;;;;;;;27.33;12.77;;;;;;;;;;5025003;28;20050;-64
2022/01/11 12:04:35;;;;;;;30.02;12.27;;;;;;;;;;5031128;28;20057;-64
2022/01/11 12:07:20;;;;;;;25.35;12.30;;;;;;;;;;5020701;28;20592;-64
2022/01/11 12:09:51;;;;;;;28.20;13.07;;;;;;;;;;5022320;28;20303;-64
2022/01/11 12:12:36;;;;;;;26.35;12.18;;;;;;;;;;5032476;28;20053;-64
2022/01/11 12:15:22;;;;;;;30.67;11.77;;;;;;;;;;5025778;28;20050;-64
2022/01/11 12:18:08;;;;;;;22.15;11.38;;;;;;;;;;5027531;28;20060;-65
2022/01/11 12:20:42;;;;;;;22.52;11.15;;;;;;;;;;5022912;28;20049;-64
2022/01/11 12:23:13;;;;;;;22.88;11.80;;;;;;;;;;5005725;28;20550;-64
2022/01/11 12:25:43;;;;;;;23.15;11.00;;;;;;;;;;5023155;28;20045;-63
2022/01/11 12:28:19;;;;;;;26.67;11.45;;;;;;;;;;5027246;28;20052;-64
2022/01/11 12:30:46;;;;;;;26.25;11.77;;;;;;;;;;5023884;28;20417;-64
2022/01/11 12:33:21;;;;;;;23.83;11.48;;;;;;;;;;5026726;28;20414;-65
2022/01/11 12:35:55;;;;;;;27.55;12.38;;;;;;;;;;5015675;28;20159;-64
2022/01/11 12:38:22;;;;;;;27.30;13.05;;;;;;;;;;5030569;28;20053;-65
2022/01/11 12:40:49;;;;;;;22.83;11.82;;;;;;;;;;5031162;28;20052;-64
2022/01/11 12:43:35;;;;;;;28.88;11.50;;;;;;;;;;5019541;28;20049;-64
2022/01/11 12:46:05;;;;;;;28.42;12.80;;;;;;;;;;5033243;28;20053;-64
2022/01/11 12:48:48;;;;;;;25.70;12.38;;;;;;;;;;5019915;28;20042;-64
2022/01/11 12:51:24;;;;;;;26.63;13.15;;;;;;;;;;5023622;28;20056;-64
2022/01/11 12:54:17;;;;;;;29.73;12.60;;;;;;;;;;5023881;28;20045;-64
2022/01/11 12:56:45;;;;;;;29.80;13.70;;;;;;;;;;5027793;28;20419;-64
2022/01/11 12:59:11;;;;;;;33.47;12.93;;;;;;;;;;5020750;28;20056;-64
2022/01/11 13:01:38;;;;;;;26.30;12.38;;;;;;;;;;5029031;28;20053;-64
2022/01/11 13:04:05;;;;;;;24.17;12.27;;;;;;;;;;5018539;28;20572;-64
2022/01/11 13:06:32;;;;;;;23.73;10.57;;;;;;;;;;5028912;28;20046;-64
2022/01/11 13:09:00;;;;;;;25.52;12.70;;;;;;;;;;5029559;28;20048;-64
2022/01/11 13:11:26;;;;;;;27.50;12.48;;;;;;;;;;5021550;28;20052;-64
2022/01/11 13:16:49;;;;;;;24.65;11.88;;;;;;;;;;5012477;28;20053;-64
2022/01/11 13:19:15;;;;;;;26.40;12.40;;;;;;;;;;5028309;28;20626;-65
2022/01/11 13:21:43;;;;;;;29.35;13.48;;;;;;;;;;5019760;28;20433;-65
2022/01/11 13:26:52;;;;;;;26.25;13.48;;;;;;;;;;5021066;28;20046;-65
2022/01/11 13:29:20;;;;;;;24.35;12.52;;;;;;;;;;5026488;28;20053;-65
2022/01/11 13:31:52;;;;;;;26.55;12.85;;;;;;;;;;5022157;28;20486;-65
2022/01/11 13:34:22;;;;;;;25.55;12.10;;;;;;;;;;5019882;28;20057;-65
2022/01/11 13:36:51;;;;;;;30.50;13.30;;;;;;;;;;5030597;28;20063;-64
2022/01/11 13:39:22;;;;;;;26.95;12.77;;;;;;;;;;5020762;28;20046;-64
2022/01/11 13:41:49;;;;;;;23.70;12.52;;;;;;;;;;5012268;28;20474;-65
2022/01/11 13:44:19;;;;;;;29.00;12.05;;;;;;;;;;5016430;28;20041;-65
2022/01/11 13:46:50;;;;;;;28.17;12.55;;;;;;;;;;5024012;28;20113;-65
2022/01/11 13:49:18;;;;;;;19.60;10.68;;;;;;;;;;5029683;28;20441;-65
2022/01/11 13:51:46;;;;;;;28.92;12.35;;;;;;;;;;5021890;28;20057;-65
2022/01/11 13:54:13;;;;;;;27.17;13.15;;;;;;;;;;5031091;28;20129;-65
2022/01/11 13:56:42;;;;;;;25.67;12.93;;;;;;;;;;5016135;28;20056;-65
2022/01/11 13:59:13;;;;;;;25.45;12.68;;;;;;;;;;5024268;28;20049;-64
2022/01/11 14:01:39;;;;;;;25.67;13.23;;;;;;;;;;5021522;28;20045;-65
2022/01/11 14:04:07;;;;;;;29.55;14.00;;;;;;;;;;5033848;28;20052;-64
2022/01/11 14:06:41;;;;;;;29.80;13.87;;;;;;;;;;5030935;28;20132;-65
2022/01/11 14:09:12;;;;;;;27.50;13.70;;;;;;;;;;5030192;28;20758;-65
2022/01/11 14:11:50;;;;;;;20.95;11.65;;;;;;;;;;5026078;28;20060;-65
2022/01/11 14:14:21;;;;;;;23.40;12.57;;;;;;;;;;5021652;28;20387;-64
2022/01/11 14:17:10;;;;;;;24.40;12.95;;;;;;;;;;5040921;28;20139;-64
2022/01/11 14:19:44;;;;;;;27.30;13.18;;;;;;;;;;5010756;28;20180;-65
2022/01/11 14:22:12;;;;;;;25.20;13.68;;;;;;;;;;5033283;28;20053;-65
2022/01/11 14:24:57;;;;;;;29.17;13.88;;;;;;;;;;5025598;28;20049;-65
2022/01/11 14:27:29;;;;;;;32.47;13.65;;;;;;;;;;5012786;28;20057;-65
2022/01/11 14:29:58;;;;;;;24.77;12.65;;;;;;;;;;5025867;28;20430;-63
2022/01/11 14:32:24;;;;;;;26.67;13.98;;;;;;;;;;5029750;28;20045;-64